sensor_id;sensor_type;location;lat;lon;timestamp;P1;durP1;ratioP1;P2;durP2;ratioP2
39078;SDS011;24829;49.208;12.080;2023-02-12T00:00:39;85.80;;;43.10;;
39078;SDS011;24829;49.208;12.080;2023-02-12T00:03:06;80.47;;;41.58;;
39078;SDS011;24829;49.208;12.080;2023-02-12T00:05:31;81.93;;;44.75;;
39078;SDS011;24829;49.208;12.080;2023-02-12T00:07:57;84.78;;;42.28;;
39078;SDS011;24829;49.208;12.080;2023-02-12T00:10:23;72.55;;;37.08;;
39078;SDS011;24829;49.208;12.080;2023-02-12T00:12:48;77.35;;;35.85;;
39078;SDS011;24829;49.208;12.080;2023-02-12T00:15:14;67.53;;;33.05;;
39078;SDS011;24829;49.208;12.080;2023-02-12T00:17:40;66.13;;;34.60;;
39078;SDS011;24829;49.208;12.080;2023-02-12T00:20:06;72.20;;;35.13;;
39078;SDS011;24829;49.208;12.080;2023-02-12T00:22:32;72.38;;;36.38;;
39078;SDS011;24829;49.208;12.080;2023-02-12T00:24:57;68.10;;;33.08;;
39078;SDS011;24829;49.208;12.080;2023-02-12T00:27:23;68.97;;;34.40;;
39078;SDS011;24829;49.208;12.080;2023-02-12T00:29:48;72.03;;;34.47;;
39078;SDS011;24829;49.208;12.080;2023-02-12T00:32:14;65.32;;;33.22;;
39078;SDS011;24829;49.208;12.080;2023-02-12T00:34:43;77.03;;;35.83;;
39078;SDS011;24829;49.208;12.080;2023-02-12T00:37:12;64.40;;;32.25;;
39078;SDS011;24829;49.208;12.080;2023-02-12T00:39:38;77.70;;;36.22;;
39078;SDS011;24829;49.208;12.080;2023-02-12T00:42:04;74.72;;;35.80;;
39078;SDS011;24829;49.208;12.080;2023-02-12T00:44:29;70.75;;;34.47;;
39078;SDS011;24829;49.208;12.080;2023-02-12T00:46:55;77.35;;;37.53;;
39078;SDS011;24829;49.208;12.080;2023-02-12T00:49:21;73.15;;;35.47;;
39078;SDS011;24829;49.208;12.080;2023-02-12T00:51:47;71.93;;;37.85;;
39078;SDS011;24829;49.208;12.080;2023-02-12T00:54:13;69.72;;;33.80;;
39078;SDS011;24829;49.208;12.080;2023-02-12T00:56:39;74.40;;;35.83;;
39078;SDS011;24829;49.208;12.080;2023-02-12T00:59:04;72.43;;;33.92;;
39078;SDS011;24829;49.208;12.080;2023-02-12T01:01:30;66.43;;;33.55;;
39078;SDS011;24829;49.208;12.080;2023-02-12T01:03:56;73.93;;;35.65;;
39078;SDS011;24829;49.208;12.080;2023-02-12T01:06:21;86.97;;;40.50;;
39078;SDS011;24829;49.208;12.080;2023-02-12T01:08:50;94.35;;;45.17;;
39078;SDS011;24829;49.208;12.080;2023-02-12T01:11:16;100.93;;;48.20;;
39078;SDS011;24829;49.208;12.080;2023-02-12T01:13:42;92.05;;;43.08;;
39078;SDS011;24829;49.208;12.080;2023-02-12T01:16:09;93.90;;;42.58;;
39078;SDS011;24829;49.208;12.080;2023-02-12T01:18:45;103.85;;;47.00;;
39078;SDS011;24829;49.208;12.080;2023-02-12T01:21:13;85.72;;;40.35;;
39078;SDS011;24829;49.208;12.080;2023-02-12T01:23:43;76.93;;;38.08;;
39078;SDS011;24829;49.208;12.080;2023-02-12T01:26:09;73.13;;;37.38;;
39078;SDS011;24829;49.208;12.080;2023-02-12T01:28:39;78.97;;;36.40;;
39078;SDS011;24829;49.208;12.080;2023-02-12T01:31:13;80.47;;;35.88;;
39078;SDS011;24829;49.208;12.080;2023-02-12T01:33:40;69.78;;;33.67;;
39078;SDS011;24829;49.208;12.080;2023-02-12T01:36:07;70.30;;;36.13;;
39078;SDS011;24829;49.208;12.080;2023-02-12T01:38:33;73.43;;;35.67;;
39078;SDS011;24829;49.208;12.080;2023-02-12T01:41:10;72.47;;;36.50;;
39078;SDS011;24829;49.208;12.080;2023-02-12T01:43:38;75.65;;;35.75;;
39078;SDS011;24829;49.208;12.080;2023-02-12T01:46:05;80.45;;;36.33;;
39078;SDS011;24829;49.208;12.080;2023-02-12T01:48:32;75.72;;;37.33;;
39078;SDS011;24829;49.208;12.080;2023-02-12T01:51:01;73.30;;;36.72;;
39078;SDS011;24829;49.208;12.080;2023-02-12T01:53:30;76.18;;;37.55;;
39078;SDS011;24829;49.208;12.080;2023-02-12T01:55:59;75.43;;;35.25;;
39078;SDS011;24829;49.208;12.080;2023-02-12T01:58:27;75.30;;;35.28;;
39078;SDS011;24829;49.208;12.080;2023-02-12T02:03:25;70.10;;;33.58;;
39078;SDS011;24829;49.208;12.080;2023-02-12T02:05:55;73.13;;;35.88;;
39078;SDS011;24829;49.208;12.080;2023-02-12T02:08:27;72.07;;;35.88;;
39078;SDS011;24829;49.208;12.080;2023-02-12T02:10:53;76.22;;;37.65;;
39078;SDS011;24829;49.208;12.080;2023-02-12T02:13:19;89.50;;;44.40;;
39078;SDS011;24829;49.208;12.080;2023-02-12T02:16:13;96.40;;;45.08;;
39078;SDS011;24829;49.208;12.080;2023-02-12T02:18:55;77.45;;;38.95;;
39078;SDS011;24829;49.208;12.080;2023-02-12T02:27:26;80.45;;;37.25;;
39078;SDS011;24829;49.208;12.080;2023-02-12T02:32:41;78.60;;;37.03;;
39078;SDS011;24829;49.208;12.080;2023-02-12T02:38:16;77.15;;;37.72;;
39078;SDS011;24829;49.208;12.080;2023-02-12T02:40:59;75.35;;;36.35;;
39078;SDS011;24829;49.208;12.080;2023-02-12T02:43:34;74.85;;;34.15;;
39078;SDS011;24829;49.208;12.080;2023-02-12T02:46:06;72.28;;;37.08;;
39078;SDS011;24829;49.208;12.080;2023-02-12T02:48:53;63.85;;;33.97;;
39078;SDS011;24829;49.208;12.080;2023-02-12T02:51:25;72.47;;;35.63;;
39078;SDS011;24829;49.208;12.080;2023-02-12T02:54:29;67.40;;;34.83;;
39078;SDS011;24829;49.208;12.080;2023-02-12T02:57:05;74.43;;;35.08;;
39078;SDS011;24829;49.208;12.080;2023-02-12T02:59:37;84.38;;;38.67;;
39078;SDS011;24829;49.208;12.080;2023-02-12T03:02:12;92.72;;;41.15;;
39078;SDS011;24829;49.208;12.080;2023-02-12T03:05:00;92.15;;;41.30;;
39078;SDS011;24829;49.208;12.080;2023-02-12T03:07:32;89.45;;;41.80;;
39078;SDS011;24829;49.208;12.080;2023-02-12T03:10:21;99.82;;;43.08;;
39078;SDS011;24829;49.208;12.080;2023-02-12T03:12:57;96.85;;;41.75;;
39078;SDS011;24829;49.208;12.080;2023-02-12T03:15:31;100.15;;;42.58;;
39078;SDS011;24829;49.208;12.080;2023-02-12T03:18:02;97.32;;;41.33;;
39078;SDS011;24829;49.208;12.080;2023-02-12T03:20:40;93.95;;;41.20;;
39078;SDS011;24829;49.208;12.080;2023-02-12T03:23:09;93.95;;;41.25;;
39078;SDS011;24829;49.208;12.080;2023-02-12T03:25:47;99.53;;;42.25;;
39078;SDS011;24829;49.208;12.080;2023-02-12T03:28:27;94.65;;;40.28;;
39078;SDS011;24829;49.208;12.080;2023-02-12T03:31:09;113.82;;;44.13;;
39078;SDS011;24829;49.208;12.080;2023-02-12T03:36:37;113.25;;;42.60;;
39078;SDS011;24829;49.208;12.080;2023-02-12T03:39:15;116.75;;;43.47;;
39078;SDS011;24829;49.208;12.080;2023-02-12T03:47:22;111.88;;;43.70;;
39078;SDS011;24829;49.208;12.080;2023-02-12T03:52:39;100.95;;;42.80;;
39078;SDS011;24829;49.208;12.080;2023-02-12T03:55:05;106.00;;;44.13;;
39078;SDS011;24829;49.208;12.080;2023-02-12T03:57:33;105.47;;;45.75;;
39078;SDS011;24829;49.208;12.080;2023-02-12T04:02:32;99.00;;;45.33;;
39078;SDS011;24829;49.208;12.080;2023-02-12T04:05:03;103.40;;;47.63;;
39078;SDS011;24829;49.208;12.080;2023-02-12T04:07:32;114.57;;;46.47;;
39078;SDS011;24829;49.208;12.080;2023-02-12T04:10:00;121.57;;;48.60;;
39078;SDS011;24829;49.208;12.080;2023-02-12T04:18:14;104.30;;;47.50;;
39078;SDS011;24829;49.208;12.080;2023-02-12T04:23:41;90.68;;;41.65;;
39078;SDS011;24829;49.208;12.080;2023-02-12T04:26:28;89.18;;;41.40;;
39078;SDS011;24829;49.208;12.080;2023-02-12T04:29:10;90.10;;;39.38;;
39078;SDS011;24829;49.208;12.080;2023-02-12T04:37:27;103.97;;;40.90;;
39078;SDS011;24829;49.208;12.080;2023-02-12T04:39:57;103.32;;;40.53;;
39078;SDS011;24829;49.208;12.080;2023-02-12T04:42:26;94.05;;;39.08;;
39078;SDS011;24829;49.208;12.080;2023-02-12T04:44:52;91.85;;;38.25;;
39078;SDS011;24829;49.208;12.080;2023-02-12T04:47:17;89.35;;;39.17;;
39078;SDS011;24829;49.208;12.080;2023-02-12T04:49:43;101.75;;;41.47;;
39078;SDS011;24829;49.208;12.080;2023-02-12T04:52:08;91.22;;;42.00;;
39078;SDS011;24829;49.208;12.080;2023-02-12T04:54:34;99.20;;;42.38;;
39078;SDS011;24829;49.208;12.080;2023-02-12T04:57:00;99.20;;;43.72;;
39078;SDS011;24829;49.208;12.080;2023-02-12T04:59:26;95.43;;;42.17;;
39078;SDS011;24829;49.208;12.080;2023-02-12T05:01:51;94.40;;;43.42;;
39078;SDS011;24829;49.208;12.080;2023-02-12T05:04:17;106.25;;;44.40;;
39078;SDS011;24829;49.208;12.080;2023-02-12T05:06:43;109.05;;;46.35;;
39078;SDS011;24829;49.208;12.080;2023-02-12T05:09:13;116.38;;;50.83;;
39078;SDS011;24829;49.208;12.080;2023-02-12T05:11:40;104.25;;;44.08;;
39078;SDS011;24829;49.208;12.080;2023-02-12T05:14:06;112.93;;;48.30;;
39078;SDS011;24829;49.208;12.080;2023-02-12T05:16:32;124.93;;;49.45;;
39078;SDS011;24829;49.208;12.080;2023-02-12T05:18:57;104.00;;;45.72;;
39078;SDS011;24829;49.208;12.080;2023-02-12T05:21:23;114.32;;;51.00;;
39078;SDS011;24829;49.208;12.080;2023-02-12T05:23:48;104.30;;;44.92;;
39078;SDS011;24829;49.208;12.080;2023-02-12T05:26:17;106.57;;;44.70;;
39078;SDS011;24829;49.208;12.080;2023-02-12T05:28:44;95.32;;;45.15;;
39078;SDS011;24829;49.208;12.080;2023-02-12T05:31:10;92.55;;;41.40;;
39078;SDS011;24829;49.208;12.080;2023-02-12T05:33:40;97.10;;;44.50;;
39078;SDS011;24829;49.208;12.080;2023-02-12T05:36:08;115.10;;;48.83;;
39078;SDS011;24829;49.208;12.080;2023-02-12T05:38:55;107.05;;;46.03;;
39078;SDS011;24829;49.208;12.080;2023-02-12T05:41:22;124.93;;;52.97;;
39078;SDS011;24829;49.208;12.080;2023-02-12T05:43:49;125.40;;;50.72;;
39078;SDS011;24829;49.208;12.080;2023-02-12T05:46:15;110.93;;;49.15;;
39078;SDS011;24829;49.208;12.080;2023-02-12T05:48:42;108.22;;;46.53;;
39078;SDS011;24829;49.208;12.080;2023-02-12T05:51:09;108.40;;;47.28;;
39078;SDS011;24829;49.208;12.080;2023-02-12T05:53:39;99.15;;;45.65;;
39078;SDS011;24829;49.208;12.080;2023-02-12T05:56:15;96.65;;;43.55;;
39078;SDS011;24829;49.208;12.080;2023-02-12T05:58:47;102.25;;;45.15;;
39078;SDS011;24829;49.208;12.080;2023-02-12T06:01:17;115.00;;;47.95;;
39078;SDS011;24829;49.208;12.080;2023-02-12T06:03:45;123.15;;;51.38;;
39078;SDS011;24829;49.208;12.080;2023-02-12T06:06:11;129.70;;;52.83;;
39078;SDS011;24829;49.208;12.080;2023-02-12T06:08:37;129.02;;;52.30;;
39078;SDS011;24829;49.208;12.080;2023-02-12T06:11:04;125.15;;;53.05;;
39078;SDS011;24829;49.208;12.080;2023-02-12T06:13:31;138.40;;;54.35;;
39078;SDS011;24829;49.208;12.080;2023-02-12T06:15:58;144.55;;;56.20;;
39078;SDS011;24829;49.208;12.080;2023-02-12T06:18:24;124.40;;;54.35;;
39078;SDS011;24829;49.208;12.080;2023-02-12T06:20:50;134.23;;;54.15;;
39078;SDS011;24829;49.208;12.080;2023-02-12T06:23:18;131.82;;;55.72;;
39078;SDS011;24829;49.208;12.080;2023-02-12T06:25:48;124.18;;;50.85;;
39078;SDS011;24829;49.208;12.080;2023-02-12T06:28:14;146.55;;;55.95;;
39078;SDS011;24829;49.208;12.080;2023-02-12T06:30:40;133.65;;;54.75;;
39078;SDS011;24829;49.208;12.080;2023-02-12T06:33:06;129.82;;;55.80;;
39078;SDS011;24829;49.208;12.080;2023-02-12T06:35:35;133.73;;;55.38;;
39078;SDS011;24829;49.208;12.080;2023-02-12T06:38:01;128.50;;;53.72;;
39078;SDS011;24829;49.208;12.080;2023-02-12T06:40:27;113.72;;;50.92;;
39078;SDS011;24829;49.208;12.080;2023-02-12T06:42:53;105.88;;;48.28;;
39078;SDS011;24829;49.208;12.080;2023-02-12T06:45:18;114.82;;;48.25;;
39078;SDS011;24829;49.208;12.080;2023-02-12T06:47:44;105.13;;;47.33;;
39078;SDS011;24829;49.208;12.080;2023-02-12T06:50:10;102.63;;;45.95;;
39078;SDS011;24829;49.208;12.080;2023-02-12T06:52:35;100.55;;;46.72;;
39078;SDS011;24829;49.208;12.080;2023-02-12T06:55:01;111.05;;;47.95;;
39078;SDS011;24829;49.208;12.080;2023-02-12T06:57:27;99.63;;;46.08;;
39078;SDS011;24829;49.208;12.080;2023-02-12T06:59:53;100.60;;;46.38;;
39078;SDS011;24829;49.208;12.080;2023-02-12T07:02:19;112.05;;;50.70;;
39078;SDS011;24829;49.208;12.080;2023-02-12T07:04:45;119.43;;;49.85;;
39078;SDS011;24829;49.208;12.080;2023-02-12T07:07:10;112.18;;;49.92;;
39078;SDS011;24829;49.208;12.080;2023-02-12T07:09:36;119.97;;;50.85;;
39078;SDS011;24829;49.208;12.080;2023-02-12T07:12:02;114.72;;;52.03;;
39078;SDS011;24829;49.208;12.080;2023-02-12T07:14:28;139.13;;;55.95;;
39078;SDS011;24829;49.208;12.080;2023-02-12T07:16:54;140.50;;;58.85;;
39078;SDS011;24829;49.208;12.080;2023-02-12T07:19:20;131.73;;;53.95;;
39078;SDS011;24829;49.208;12.080;2023-02-12T07:21:46;139.98;;;56.75;;
39078;SDS011;24829;49.208;12.080;2023-02-12T07:24:12;123.65;;;55.25;;
39078;SDS011;24829;49.208;12.080;2023-02-12T07:26:38;172.90;;;68.45;;
39078;SDS011;24829;49.208;12.080;2023-02-12T07:29:05;161.95;;;63.40;;
39078;SDS011;24829;49.208;12.080;2023-02-12T07:31:30;145.27;;;61.97;;
39078;SDS011;24829;49.208;12.080;2023-02-12T07:33:57;149.88;;;57.95;;
39078;SDS011;24829;49.208;12.080;2023-02-12T07:36:24;133.93;;;53.80;;
39078;SDS011;24829;49.208;12.080;2023-02-12T07:38:52;130.23;;;52.00;;
39078;SDS011;24829;49.208;12.080;2023-02-12T07:41:21;130.10;;;54.03;;
39078;SDS011;24829;49.208;12.080;2023-02-12T07:43:52;133.40;;;53.47;;
39078;SDS011;24829;49.208;12.080;2023-02-12T07:46:20;127.55;;;49.28;;
39078;SDS011;24829;49.208;12.080;2023-02-12T07:48:56;132.05;;;53.15;;
39078;SDS011;24829;49.208;12.080;2023-02-12T07:51:24;151.93;;;53.55;;
39078;SDS011;24829;49.208;12.080;2023-02-12T07:53:51;138.95;;;54.83;;
39078;SDS011;24829;49.208;12.080;2023-02-12T07:56:18;134.63;;;54.47;;
39078;SDS011;24829;49.208;12.080;2023-02-12T07:58:44;132.20;;;53.25;;
39078;SDS011;24829;49.208;12.080;2023-02-12T08:01:18;121.50;;;49.33;;
39078;SDS011;24829;49.208;12.080;2023-02-12T08:03:46;113.97;;;47.65;;
39078;SDS011;24829;49.208;12.080;2023-02-12T08:06:16;112.63;;;47.78;;
39078;SDS011;24829;49.208;12.080;2023-02-12T08:08:53;118.45;;;53.05;;
39078;SDS011;24829;49.208;12.080;2023-02-12T08:11:20;124.18;;;53.40;;
39078;SDS011;24829;49.208;12.080;2023-02-12T08:13:46;125.47;;;55.03;;
39078;SDS011;24829;49.208;12.080;2023-02-12T08:16:13;145.48;;;64.30;;
39078;SDS011;24829;49.208;12.080;2023-02-12T08:18:40;134.52;;;56.92;;
39078;SDS011;24829;49.208;12.080;2023-02-12T08:21:10;146.80;;;62.67;;
39078;SDS011;24829;49.208;12.080;2023-02-12T08:23:37;124.83;;;53.83;;
39078;SDS011;24829;49.208;12.080;2023-02-12T08:26:10;130.05;;;57.95;;
39078;SDS011;24829;49.208;12.080;2023-02-12T08:28:44;124.78;;;55.83;;
39078;SDS011;24829;49.208;12.080;2023-02-12T08:31:16;109.38;;;45.22;;
39078;SDS011;24829;49.208;12.080;2023-02-12T08:33:44;92.00;;;43.42;;
39078;SDS011;24829;49.208;12.080;2023-02-12T08:36:12;101.15;;;45.35;;
39078;SDS011;24829;49.208;12.080;2023-02-12T08:38:39;92.03;;;40.25;;
39078;SDS011;24829;49.208;12.080;2023-02-12T08:41:06;97.63;;;45.80;;
39078;SDS011;24829;49.208;12.080;2023-02-12T08:43:34;100.30;;;45.63;;
39078;SDS011;24829;49.208;12.080;2023-02-12T08:46:04;105.50;;;49.08;;
39078;SDS011;24829;49.208;12.080;2023-02-12T08:48:31;102.35;;;46.35;;
39078;SDS011;24829;49.208;12.080;2023-02-12T08:51:31;105.07;;;45.45;;
39078;SDS011;24829;49.208;12.080;2023-02-12T08:53:51;96.43;;;43.17;;
39078;SDS011;24829;49.208;12.080;2023-02-12T08:56:19;93.47;;;40.72;;
39078;SDS011;24829;49.208;12.080;2023-02-12T08:58:45;92.55;;;43.75;;
39078;SDS011;24829;49.208;12.080;2023-02-12T09:01:12;92.35;;;44.78;;
39078;SDS011;24829;49.208;12.080;2023-02-12T09:03:42;97.80;;;45.33;;
39078;SDS011;24829;49.208;12.080;2023-02-12T09:06:09;95.40;;;41.35;;
39078;SDS011;24829;49.208;12.080;2023-02-12T09:08:35;90.45;;;40.13;;
39078;SDS011;24829;49.208;12.080;2023-02-12T09:11:05;81.55;;;36.55;;
39078;SDS011;24829;49.208;12.080;2023-02-12T09:13:33;82.03;;;38.00;;
39078;SDS011;24829;49.208;12.080;2023-02-12T09:16:00;79.35;;;35.92;;
39078;SDS011;24829;49.208;12.080;2023-02-12T09:18:27;83.20;;;37.83;;
39078;SDS011;24829;49.208;12.080;2023-02-12T09:20:54;84.05;;;41.58;;
39078;SDS011;24829;49.208;12.080;2023-02-12T09:23:25;76.43;;;36.88;;
39078;SDS011;24829;49.208;12.080;2023-02-12T09:25:51;70.13;;;33.35;;
39078;SDS011;24829;49.208;12.080;2023-02-12T09:28:16;76.15;;;34.08;;
39078;SDS011;24829;49.208;12.080;2023-02-12T09:30:42;71.28;;;31.58;;
39078;SDS011;24829;49.208;12.080;2023-02-12T09:33:08;71.63;;;33.40;;
39078;SDS011;24829;49.208;12.080;2023-02-12T09:35:35;81.60;;;39.78;;
39078;SDS011;24829;49.208;12.080;2023-02-12T09:38:02;71.95;;;35.33;;
39078;SDS011;24829;49.208;12.080;2023-02-12T09:40:33;78.50;;;36.72;;
39078;SDS011;24829;49.208;12.080;2023-02-12T09:43:32;68.28;;;32.70;;
39078;SDS011;24829;49.208;12.080;2023-02-12T09:48:52;68.03;;;32.55;;
39078;SDS011;24829;49.208;12.080;2023-02-12T09:51:33;70.22;;;31.33;;
39078;SDS011;24829;49.208;12.080;2023-02-12T09:54:03;67.18;;;33.30;;
39078;SDS011;24829;49.208;12.080;2023-02-12T09:56:30;64.25;;;31.42;;
39078;SDS011;24829;49.208;12.080;2023-02-12T09:58:59;67.00;;;34.38;;
39078;SDS011;24829;49.208;12.080;2023-02-12T10:01:28;67.30;;;35.42;;
39078;SDS011;24829;49.208;12.080;2023-02-12T10:03:54;72.70;;;36.00;;
39078;SDS011;24829;49.208;12.080;2023-02-12T10:06:24;68.07;;;35.25;;
39078;SDS011;24829;49.208;12.080;2023-02-12T10:17:04;62.63;;;31.15;;
39078;SDS011;24829;49.208;12.080;2023-02-12T10:22:37;60.42;;;28.45;;
39078;SDS011;24829;49.208;12.080;2023-02-12T10:25:16;55.67;;;28.73;;
39078;SDS011;24829;49.208;12.080;2023-02-12T10:27:56;74.43;;;40.05;;
39078;SDS011;24829;49.208;12.080;2023-02-12T10:30:29;82.73;;;44.83;;
39078;SDS011;24829;49.208;12.080;2023-02-12T10:32:59;90.85;;;48.78;;
39078;SDS011;24829;49.208;12.080;2023-02-12T10:35:31;59.22;;;29.80;;
39078;SDS011;24829;49.208;12.080;2023-02-12T10:38:03;55.78;;;27.92;;
39078;SDS011;24829;49.208;12.080;2023-02-12T10:40:47;39.95;;;19.70;;
39078;SDS011;24829;49.208;12.080;2023-02-12T10:43:14;50.50;;;25.25;;
39078;SDS011;24829;49.208;12.080;2023-02-12T10:45:40;43.38;;;22.67;;
39078;SDS011;24829;49.208;12.080;2023-02-12T10:58:36;43.50;;;23.38;;
39078;SDS011;24829;49.208;12.080;2023-02-12T11:01:05;49.95;;;30.83;;
39078;SDS011;24829;49.208;12.080;2023-02-12T11:03:59;48.78;;;24.77;;
39078;SDS011;24829;49.208;12.080;2023-02-12T11:06:44;47.35;;;25.48;;
39078;SDS011;24829;49.208;12.080;2023-02-12T11:09:29;52.65;;;30.30;;
39078;SDS011;24829;49.208;12.080;2023-02-12T11:12:00;39.58;;;22.08;;
39078;SDS011;24829;49.208;12.080;2023-02-12T11:14:26;39.17;;;22.17;;
39078;SDS011;24829;49.208;12.080;2023-02-12T11:16:53;40.42;;;23.30;;
39078;SDS011;24829;49.208;12.080;2023-02-12T11:19:29;39.60;;;20.77;;
39078;SDS011;24829;49.208;12.080;2023-02-12T11:22:05;36.80;;;20.05;;
39078;SDS011;24829;49.208;12.080;2023-02-12T11:24:35;37.13;;;19.88;;
39078;SDS011;24829;49.208;12.080;2023-02-12T11:29:40;36.10;;;20.65;;
39078;SDS011;24829;49.208;12.080;2023-02-12T11:32:07;38.95;;;20.48;;
39078;SDS011;24829;49.208;12.080;2023-02-12T11:34:39;34.60;;;17.95;;
39078;SDS011;24829;49.208;12.080;2023-02-12T11:37:04;31.95;;;17.38;;
39078;SDS011;24829;49.208;12.080;2023-02-12T11:39:47;30.77;;;16.38;;
39078;SDS011;24829;49.208;12.080;2023-02-12T11:42:15;24.73;;;13.95;;
39078;SDS011;24829;49.208;12.080;2023-02-12T11:44:47;28.42;;;14.52;;
39078;SDS011;24829;49.208;12.080;2023-02-12T11:47:16;30.75;;;17.15;;
39078;SDS011;24829;49.208;12.080;2023-02-12T11:49:54;27.90;;;15.90;;
39078;SDS011;24829;49.208;12.080;2023-02-12T11:52:24;32.92;;;18.30;;
39078;SDS011;24829;49.208;12.080;2023-02-12T11:54:53;32.25;;;18.08;;
39078;SDS011;24829;49.208;12.080;2023-02-12T12:00:13;23.33;;;13.82;;
39078;SDS011;24829;49.208;12.080;2023-02-12T12:03:03;27.40;;;15.63;;
39078;SDS011;24829;49.208;12.080;2023-02-12T12:05:43;24.45;;;13.93;;
39078;SDS011;24829;49.208;12.080;2023-02-12T12:08:18;23.65;;;13.70;;
39078;SDS011;24829;49.208;12.080;2023-02-12T12:11:06;16.63;;;10.07;;
39078;SDS011;24829;49.208;12.080;2023-02-12T12:13:43;17.98;;;10.50;;
39078;SDS011;24829;49.208;12.080;2023-02-12T12:16:26;17.38;;;10.90;;
39078;SDS011;24829;49.208;12.080;2023-02-12T12:19:17;22.55;;;12.60;;
39078;SDS011;24829;49.208;12.080;2023-02-12T12:25:11;18.93;;;11.67;;
39078;SDS011;24829;49.208;12.080;2023-02-12T12:28:05;18.52;;;11.10;;
39078;SDS011;24829;49.208;12.080;2023-02-12T12:30:44;14.68;;;9.35;;
39078;SDS011;24829;49.208;12.080;2023-02-12T12:38:41;21.52;;;13.18;;
39078;SDS011;24829;49.208;12.080;2023-02-12T12:41:33;25.80;;;14.18;;
39078;SDS011;24829;49.208;12.080;2023-02-12T12:44:30;22.17;;;13.95;;
39078;SDS011;24829;49.208;12.080;2023-02-12T12:49:51;25.70;;;15.20;;
39078;SDS011;24829;49.208;12.080;2023-02-12T12:58:13;21.05;;;11.68;;
39078;SDS011;24829;49.208;12.080;2023-02-12T13:09:10;19.08;;;11.82;;
39078;SDS011;24829;49.208;12.080;2023-02-12T13:11:45;22.23;;;11.73;;
39078;SDS011;24829;49.208;12.080;2023-02-12T13:16:48;16.60;;;8.98;;
39078;SDS011;24829;49.208;12.080;2023-02-12T13:19:31;17.42;;;10.23;;
39078;SDS011;24829;49.208;12.080;2023-02-12T13:24:57;15.50;;;9.35;;
39078;SDS011;24829;49.208;12.080;2023-02-12T13:27:41;17.85;;;9.43;;
39078;SDS011;24829;49.208;12.080;2023-02-12T13:32:50;20.75;;;11.50;;
39078;SDS011;24829;49.208;12.080;2023-02-12T13:35:40;20.63;;;11.10;;
39078;SDS011;24829;49.208;12.080;2023-02-12T13:38:10;22.83;;;12.00;;
39078;SDS011;24829;49.208;12.080;2023-02-12T13:40:42;22.10;;;12.18;;
39078;SDS011;24829;49.208;12.080;2023-02-12T13:46:07;18.73;;;10.65;;
39078;SDS011;24829;49.208;12.080;2023-02-12T13:51:17;19.13;;;11.00;;
39078;SDS011;24829;49.208;12.080;2023-02-12T13:53:53;19.85;;;11.73;;
39078;SDS011;24829;49.208;12.080;2023-02-12T14:01:58;24.17;;;12.40;;
39078;SDS011;24829;49.208;12.080;2023-02-12T14:04:59;22.43;;;12.23;;
39078;SDS011;24829;49.208;12.080;2023-02-12T14:07:42;22.77;;;13.68;;
39078;SDS011;24829;49.208;12.080;2023-02-12T14:10:20;19.73;;;10.88;;
39078;SDS011;24829;49.208;12.080;2023-02-12T14:12:46;24.25;;;12.98;;
39078;SDS011;24829;49.208;12.080;2023-02-12T14:15:27;23.42;;;12.13;;
39078;SDS011;24829;49.208;12.080;2023-02-12T14:23:36;24.50;;;12.43;;
39078;SDS011;24829;49.208;12.080;2023-02-12T14:28:46;22.60;;;12.38;;
39078;SDS011;24829;49.208;12.080;2023-02-12T14:33:52;19.13;;;11.02;;
39078;SDS011;24829;49.208;12.080;2023-02-12T14:41:44;15.45;;;8.35;;
39078;SDS011;24829;49.208;12.080;2023-02-12T14:49:56;15.07;;;9.23;;
39078;SDS011;24829;49.208;12.080;2023-02-12T14:52:25;21.65;;;10.18;;
39078;SDS011;24829;49.208;12.080;2023-02-12T14:54:55;17.83;;;9.77;;
39078;SDS011;24829;49.208;12.080;2023-02-12T15:00:18;18.90;;;10.15;;
39078;SDS011;24829;49.208;12.080;2023-02-12T15:14:06;20.73;;;10.60;;
39078;SDS011;24829;49.208;12.080;2023-02-12T15:22:15;17.17;;;10.63;;
39078;SDS011;24829;49.208;12.080;2023-02-12T15:24:46;17.45;;;9.60;;
39078;SDS011;24829;49.208;12.080;2023-02-12T15:27:13;19.95;;;10.23;;
39078;SDS011;24829;49.208;12.080;2023-02-12T15:29:40;17.92;;;10.57;;
39078;SDS011;24829;49.208;12.080;2023-02-12T15:32:13;28.52;;;14.18;;
39078;SDS011;24829;49.208;12.080;2023-02-12T15:34:49;20.95;;;10.93;;
39078;SDS011;24829;49.208;12.080;2023-02-12T15:37:18;17.52;;;10.82;;
39078;SDS011;24829;49.208;12.080;2023-02-12T15:39:56;18.27;;;10.27;;
39078;SDS011;24829;49.208;12.080;2023-02-12T15:45:40;22.08;;;10.93;;
39078;SDS011;24829;49.208;12.080;2023-02-12T15:47:54;18.95;;;10.63;;
39078;SDS011;24829;49.208;12.080;2023-02-12T15:50:21;17.85;;;10.32;;
39078;SDS011;24829;49.208;12.080;2023-02-12T15:52:46;21.33;;;10.50;;
39078;SDS011;24829;49.208;12.080;2023-02-12T15:55:19;22.23;;;10.15;;
39078;SDS011;24829;49.208;12.080;2023-02-12T15:57:54;16.42;;;9.60;;
39078;SDS011;24829;49.208;12.080;2023-02-12T16:00:29;19.30;;;10.60;;
39078;SDS011;24829;49.208;12.080;2023-02-12T16:03:03;23.13;;;12.73;;
39078;SDS011;24829;49.208;12.080;2023-02-12T16:05:28;21.52;;;13.75;;
39078;SDS011;24829;49.208;12.080;2023-02-12T16:07:55;22.23;;;12.70;;
39078;SDS011;24829;49.208;12.080;2023-02-12T16:10:21;24.25;;;15.48;;
39078;SDS011;24829;49.208;12.080;2023-02-12T16:12:47;21.85;;;12.95;;
39078;SDS011;24829;49.208;12.080;2023-02-12T16:15:27;22.52;;;14.15;;
39078;SDS011;24829;49.208;12.080;2023-02-12T16:17:54;26.33;;;16.92;;
39078;SDS011;24829;49.208;12.080;2023-02-12T16:20:23;25.08;;;14.52;;
39078;SDS011;24829;49.208;12.080;2023-02-12T16:22:53;23.75;;;15.00;;
39078;SDS011;24829;49.208;12.080;2023-02-12T16:25:24;24.75;;;14.82;;
39078;SDS011;24829;49.208;12.080;2023-02-12T16:32:55;33.38;;;16.20;;
39078;SDS011;24829;49.208;12.080;2023-02-12T16:35:23;26.75;;;15.70;;
39078;SDS011;24829;49.208;12.080;2023-02-12T16:38:00;25.67;;;13.98;;
39078;SDS011;24829;49.208;12.080;2023-02-12T16:40:36;31.77;;;14.68;;
39078;SDS011;24829;49.208;12.080;2023-02-12T16:43:03;31.02;;;18.17;;
39078;SDS011;24829;49.208;12.080;2023-02-12T16:45:45;49.95;;;28.63;;
39078;SDS011;24829;49.208;12.080;2023-02-12T16:50:37;45.00;;;24.80;;
39078;SDS011;24829;49.208;12.080;2023-02-12T16:55:59;31.90;;;16.77;;
39078;SDS011;24829;49.208;12.080;2023-02-12T16:58:27;28.95;;;15.68;;
39078;SDS011;24829;49.208;12.080;2023-02-12T17:00:53;27.30;;;15.25;;
39078;SDS011;24829;49.208;12.080;2023-02-12T17:03:20;26.77;;;14.82;;
39078;SDS011;24829;49.208;12.080;2023-02-12T17:05:47;34.20;;;17.52;;
39078;SDS011;24829;49.208;12.080;2023-02-12T17:08:17;29.20;;;15.70;;
39078;SDS011;24829;49.208;12.080;2023-02-12T17:10:45;27.48;;;15.20;;
39078;SDS011;24829;49.208;12.080;2023-02-12T17:13:12;28.92;;;15.07;;
39078;SDS011;24829;49.208;12.080;2023-02-12T17:15:41;27.05;;;15.18;;
39078;SDS011;24829;49.208;12.080;2023-02-12T17:18:19;31.10;;;14.93;;